createdAt,value
2018-05-04T00:01:00.028Z,101013.22
2018-05-04T00:02:06.315Z,101017.52
2018-05-04T00:03:12.650Z,101015.61
2018-05-04T00:04:19.360Z,101020.39
2018-05-04T00:05:25.559Z,101015.78
2018-05-04T00:06:31.760Z,101019.27
2018-05-04T00:07:38.111Z,101018.29
2018-05-04T00:08:45.746Z,101017.19
2018-05-04T00:09:52.032Z,101017.41
2018-05-04T00:10:57.972Z,101015.59
2018-05-04T00:12:04.199Z,101017.52
2018-05-04T00:13:10.391Z,101015.15
2018-05-04T00:14:17.485Z,101017.75
2018-05-04T00:15:23.694Z,101012.20
2018-05-04T00:16:38.396Z,101015.47
2018-05-04T00:17:44.617Z,101016.44
2018-05-04T00:18:50.842Z,101013.98
2018-05-04T00:19:57.133Z,101018.95
2018-05-04T00:21:03.447Z,101018.30
2018-05-04T00:22:09.755Z,101025.52
2018-05-04T00:23:16.091Z,101027.83
2018-05-04T00:24:22.371Z,101026.39
2018-05-04T00:25:28.615Z,101029.63
2018-05-04T00:26:36.930Z,101022.51
2018-05-04T00:27:48.340Z,101019.16
2018-05-04T00:28:54.627Z,101024.14
2018-05-04T00:30:00.931Z,101021.31
2018-05-04T00:31:07.107Z,101024.00
2018-05-04T00:32:13.902Z,101017.04
2018-05-04T00:33:20.168Z,101025.91
2018-05-04T00:34:26.456Z,101019.97
2018-05-04T00:35:32.639Z,101019.89
2018-05-04T00:36:38.976Z,101024.38
2018-05-04T00:37:45.183Z,101020.69
2018-05-04T00:38:51.437Z,101016.87
2018-05-04T00:39:57.694Z,101019.98
2018-05-04T00:41:03.582Z,101018.07
2018-05-04T00:42:09.785Z,101017.56
2018-05-04T00:43:15.940Z,101016.62
2018-05-04T00:44:22.251Z,101017.55
2018-05-04T00:45:28.447Z,101011.95
2018-05-04T00:46:34.627Z,101018.41
2018-05-04T00:47:41.563Z,101017.02
2018-05-04T00:48:47.843Z,101013.97
2018-05-04T00:49:54.377Z,101019.16
2018-05-04T00:51:01.612Z,101020.46
2018-05-04T00:52:08.359Z,101023.04
2018-05-04T00:53:14.543Z,101024.25
2018-05-04T00:54:23.526Z,101027.27
2018-05-04T00:55:29.743Z,101029.89
2018-05-04T00:56:36.476Z,101036.69
2018-05-04T00:57:42.739Z,101032.09
2018-05-04T00:58:49.072Z,101034.89
2018-05-04T00:59:55.447Z,101033.02
2018-05-04T01:01:01.718Z,101029.81
2018-05-04T01:02:08.034Z,101036.22
2018-05-04T01:03:14.268Z,101033.39
2018-05-04T01:04:20.478Z,101029.60
2018-05-04T01:05:26.663Z,101035.80
2018-05-04T01:06:34.460Z,101041.16
2018-05-04T01:07:41.408Z,101037.66
2018-05-04T01:08:48.175Z,101038.41
2018-05-04T01:09:54.371Z,101046.87
2018-05-04T01:11:00.594Z,101043.42
2018-05-04T01:12:06.858Z,101039.43
2018-05-04T01:13:13.103Z,101035.00
2018-05-04T01:14:19.126Z,101034.32
2018-05-04T01:15:25.413Z,101037.52
2018-05-04T01:16:31.726Z,101033.42
2018-05-04T01:17:37.528Z,101036.12
2018-05-04T01:18:43.747Z,101037.52
2018-05-04T01:19:49.947Z,101038.88
2018-05-04T01:20:56.139Z,101035.70
2018-05-04T01:22:02.374Z,101037.81
2018-05-04T01:23:09.017Z,101034.11
2018-05-04T01:24:15.018Z,101036.08
2018-05-04T01:25:20.965Z,101034.84
2018-05-04T01:26:27.171Z,101030.03
2018-05-04T01:27:33.407Z,101034.47
2018-05-04T01:28:39.701Z,101033.67
2018-05-04T01:29:45.979Z,101033.73
2018-05-04T01:30:52.252Z,101034.28
2018-05-04T01:31:58.475Z,101036.02
2018-05-04T01:33:04.666Z,101029.84
2018-05-04T01:34:10.625Z,101031.30
2018-05-04T01:35:16.872Z,101028.24
2018-05-04T01:36:23.191Z,101030.77
2018-05-04T01:37:29.395Z,101032.34
2018-05-04T01:38:35.630Z,101036.19
2018-05-04T01:39:41.824Z,101033.06
2018-05-04T01:40:48.039Z,101033.16
2018-05-04T01:41:53.884Z,101040.12
2018-05-04T01:43:00.622Z,101038.82
2018-05-04T01:44:06.801Z,101036.71
2018-05-04T01:45:13.112Z,101037.88
2018-05-04T01:46:19.699Z,101033.42
2018-05-04T01:47:25.996Z,101032.11
2018-05-04T01:48:32.246Z,101034.01
2018-05-04T01:49:38.703Z,101029.21
2018-05-04T01:50:44.595Z,101034.12
2018-05-04T01:51:50.822Z,101032.73
2018-05-04T01:52:57.249Z,101041.58
2018-05-04T01:54:03.537Z,101042.46
2018-05-04T01:55:09.772Z,101041.56
2018-05-04T01:56:16.082Z,101043.19
2018-05-04T01:57:22.305Z,101041.92
2018-05-04T01:58:28.963Z,101043.39
2018-05-04T01:59:35.959Z,101045.49
2018-05-04T02:00:42.143Z,101046.77
2018-05-04T02:01:48.394Z,101046.19
2018-05-04T02:02:54.570Z,101042.98
2018-05-04T02:04:01.553Z,101040.58
2018-05-04T02:05:09.719Z,101049.12
2018-05-04T02:06:15.960Z,101041.65
2018-05-04T02:07:21.900Z,101039.02
2018-05-04T02:08:28.173Z,101042.89
2018-05-04T02:09:34.494Z,101046.30
2018-05-04T02:10:40.705Z,101043.95
2018-05-04T02:11:53.454Z,101045.21
2018-05-04T02:12:59.595Z,101040.02
2018-05-04T02:14:07.306Z,101041.23
2018-05-04T02:15:14.119Z,101040.72
2018-05-04T02:16:20.347Z,101044.61
2018-05-04T02:17:30.439Z,101036.97
2018-05-04T02:18:36.647Z,101037.54
2018-05-04T02:19:42.827Z,101044.30
2018-05-04T02:20:49.101Z,101039.81
2018-05-04T02:21:55.378Z,101034.23
2018-05-04T02:23:01.589Z,101041.83
2018-05-04T02:24:08.515Z,101036.70
2018-05-04T02:25:14.855Z,101033.66
2018-05-04T02:26:21.131Z,101034.95
2018-05-04T02:27:27.889Z,101037.13
2018-05-04T02:28:34.167Z,101038.84
2018-05-04T02:29:41.418Z,101041.47
2018-05-04T02:30:48.022Z,101042.88
2018-05-04T02:31:54.262Z,101047.84
2018-05-04T02:33:08.371Z,101048.00
2018-05-04T02:34:14.597Z,101043.73
2018-05-04T02:35:20.852Z,101049.84
2018-05-04T02:36:27.053Z,101045.41
2018-05-04T02:37:33.405Z,101045.34
2018-05-04T02:38:39.681Z,101048.00
2018-05-04T02:39:45.962Z,101040.69
2018-05-04T02:40:52.225Z,101034.56
2018-05-04T02:41:58.430Z,101034.48
2018-05-04T02:43:04.233Z,101044.08
2018-05-04T02:44:11.144Z,101043.56
2018-05-04T02:45:19.081Z,101043.58
2018-05-04T02:46:25.586Z,101049.23
2018-05-04T02:47:31.815Z,101048.30
2018-05-04T02:48:38.018Z,101050.80
2018-05-04T02:49:44.967Z,101061.97
2018-05-04T02:50:51.175Z,101057.72
2018-05-04T02:51:57.147Z,101058.83
2018-05-04T02:53:03.448Z,101055.87
2018-05-04T02:54:09.691Z,101062.44
2018-05-04T02:55:15.991Z,101059.88
2018-05-04T02:56:22.209Z,101061.89
2018-05-04T02:57:28.413Z,101062.41
2018-05-04T02:58:34.629Z,101066.78
2018-05-04T02:59:40.839Z,101065.41
2018-05-04T03:00:47.177Z,101066.88
2018-05-04T03:01:54.091Z,101065.06
2018-05-04T03:03:00.283Z,101066.90
2018-05-04T03:04:06.481Z,101060.52
2018-05-04T03:05:13.412Z,101061.48
2018-05-04T03:06:19.663Z,101066.67
2018-05-04T03:07:26.468Z,101062.75
2018-05-04T03:08:32.772Z,101062.77
2018-05-04T03:09:38.985Z,101063.73
2018-05-04T03:10:45.210Z,101060.61
2018-05-04T03:11:51.500Z,101060.17
2018-05-04T03:12:57.733Z,101058.86
2018-05-04T03:14:04.015Z,101064.16
2018-05-04T03:15:13.709Z,101061.97
2018-05-04T03:16:19.904Z,101063.66
2018-05-04T03:17:27.091Z,101062.25
2018-05-04T03:18:33.327Z,101069.58
2018-05-04T03:19:40.309Z,101066.00
2018-05-04T03:20:46.867Z,101068.72
2018-05-04T03:21:53.144Z,101066.88
2018-05-04T03:22:59.618Z,101070.38
2018-05-04T03:24:05.834Z,101082.14
2018-05-04T03:25:12.047Z,101079.19
2018-05-04T03:26:18.482Z,101081.84
2018-05-04T03:27:24.771Z,101082.23
2018-05-04T03:28:30.967Z,101081.34
2018-05-04T03:29:37.190Z,101080.04
2018-05-04T03:30:43.408Z,101081.28
2018-05-04T03:31:49.752Z,101073.33
2018-05-04T03:32:56.040Z,101074.56
2018-05-04T03:34:02.374Z,101068.94
2018-05-04T03:35:08.644Z,101076.31
2018-05-04T03:36:15.993Z,101071.00
2018-05-04T03:37:22.275Z,101073.87
2018-05-04T03:38:28.536Z,101075.68
2018-05-04T03:39:34.862Z,101076.53
2018-05-04T03:40:41.101Z,101079.62
2018-05-04T03:41:47.370Z,101077.63
2018-05-04T03:42:53.645Z,101075.59
2018-05-04T03:44:00.695Z,101079.11
2018-05-04T03:45:06.902Z,101081.70
2018-05-04T03:46:13.207Z,101075.95
2018-05-04T03:47:19.149Z,101076.02
2018-05-04T03:48:25.401Z,101089.05
2018-05-04T03:49:31.808Z,101081.20
2018-05-04T03:50:37.731Z,101078.50
2018-05-04T03:51:43.952Z,101087.78
2018-05-04T03:52:51.257Z,101089.38
2018-05-04T03:53:57.407Z,101091.84
2018-05-04T03:55:03.561Z,101090.58
2018-05-04T03:56:09.798Z,101096.26
2018-05-04T03:57:32.357Z,101090.69
2018-05-04T03:58:49.164Z,101092.34
2018-05-04T04:00:06.184Z,101089.45
2018-05-04T04:01:23.384Z,101084.31
2018-05-04T04:02:40.469Z,101086.92
2018-05-04T04:03:57.475Z,101087.35
2018-05-04T04:05:03.512Z,101083.00
2018-05-04T04:06:09.748Z,101082.38
2018-05-04T04:07:16.000Z,101084.87
2018-05-04T04:08:22.882Z,101088.84
2018-05-04T04:09:29.695Z,101091.41
2018-05-04T04:10:35.694Z,101091.76
2018-05-04T04:11:41.998Z,101085.55
2018-05-04T04:12:48.318Z,101092.08
2018-05-04T04:13:54.567Z,101085.04
2018-05-04T04:15:00.756Z,101088.44
2018-05-04T04:16:06.996Z,101088.87
2018-05-04T04:17:13.245Z,101085.45
2018-05-04T04:18:22.891Z,101081.87
2018-05-04T04:19:29.074Z,101088.48
2018-05-04T04:20:35.391Z,101084.66
2018-05-04T04:21:41.622Z,101083.37
2018-05-04T04:22:47.827Z,101082.02
2018-05-04T04:23:54.037Z,101088.60
2018-05-04T04:25:04.245Z,101091.94
2018-05-04T04:26:10.554Z,101093.58
2018-05-04T04:27:17.041Z,101095.91
2018-05-04T04:28:23.283Z,101090.23
2018-05-04T04:29:30.404Z,101095.38
2018-05-04T04:30:36.613Z,101100.65
2018-05-04T04:31:42.872Z,101098.89
2018-05-04T04:32:49.146Z,101102.31
2018-05-04T04:33:55.326Z,101101.07
2018-05-04T04:35:01.689Z,101105.70
2018-05-04T04:36:07.957Z,101100.89
2018-05-04T04:37:14.314Z,101102.64
2018-05-04T04:38:20.622Z,101108.19
2018-05-04T04:39:34.099Z,101105.48
2018-05-04T04:40:40.838Z,101108.02
2018-05-04T04:41:47.384Z,101108.91
2018-05-04T04:42:53.571Z,101108.48
2018-05-04T04:43:59.833Z,101102.77
2018-05-04T04:45:06.044Z,101106.12
2018-05-04T04:46:12.225Z,101102.70
2018-05-04T04:47:20.299Z,101100.16
2018-05-04T04:48:27.291Z,101101.48
2018-05-04T04:49:38.572Z,101095.72
2018-05-04T04:50:44.769Z,101101.05
2018-05-04T04:51:51.031Z,101105.92
2018-05-04T04:52:57.311Z,101098.52
2018-05-04T04:54:04.211Z,101098.44
2018-05-04T04:55:11.198Z,101096.70
2018-05-04T04:56:18.011Z,101094.08
2018-05-04T04:57:24.307Z,101099.73
2018-05-04T04:58:30.558Z,101099.72
2018-05-04T04:59:36.804Z,101099.22
2018-05-04T05:00:42.999Z,101103.56
2018-05-04T05:01:49.348Z,101103.69
2018-05-04T05:02:55.753Z,101103.40
2018-05-04T05:04:02.017Z,101107.81
2018-05-04T05:05:07.511Z,101112.60
2018-05-04T05:06:14.676Z,101111.35
2018-05-04T05:07:20.902Z,101119.76
2018-05-04T05:08:27.193Z,101118.51
2018-05-04T05:09:33.371Z,101122.00
2018-05-04T05:10:39.633Z,101123.69
2018-05-04T05:11:46.750Z,101125.93
2018-05-04T05:12:53.055Z,101130.38
2018-05-04T05:13:59.254Z,101133.88
2018-05-04T05:15:04.994Z,101133.44
2018-05-04T05:16:11.805Z,101137.75
2018-05-04T05:17:18.112Z,101134.92
2018-05-04T05:18:24.511Z,101139.44
2018-05-04T05:19:33.816Z,101139.10
2018-05-04T05:20:40.083Z,101142.53
2018-05-04T05:21:46.387Z,101140.44
2018-05-04T05:22:53.563Z,101139.98
2018-05-04T05:23:59.490Z,101143.20
2018-05-04T05:25:06.502Z,101138.59
2018-05-04T05:26:12.659Z,101137.18
2018-05-04T05:27:18.893Z,101146.59
2018-05-04T05:28:25.098Z,101149.03
2018-05-04T05:29:31.318Z,101141.00
2018-05-04T05:30:37.807Z,101141.46
2018-05-04T05:31:44.032Z,101142.33
2018-05-04T05:32:50.533Z,101138.91
2018-05-04T05:33:58.510Z,101137.90
2018-05-04T05:35:04.427Z,101143.50
2018-05-04T05:36:10.750Z,101141.55
2018-05-04T05:37:17.027Z,101146.67
2018-05-04T05:38:23.274Z,101149.34
2018-05-04T05:39:29.534Z,101152.99
2018-05-04T05:40:35.756Z,101146.25
2018-05-04T05:41:41.979Z,101153.16
2018-05-04T05:42:55.639Z,101154.77
2018-05-04T05:44:02.057Z,101151.94
2018-05-04T05:45:08.269Z,101157.23
2018-05-04T05:46:14.455Z,101154.28
2018-05-04T05:47:20.679Z,101151.91
2018-05-04T05:48:26.752Z,101154.22
2018-05-04T05:49:32.988Z,101153.98
2018-05-04T05:50:39.229Z,101155.27
2018-05-04T05:51:45.189Z,101157.94
2018-05-04T05:52:51.969Z,101160.10
2018-05-04T05:53:58.246Z,101160.94
2018-05-04T05:55:04.084Z,101163.52
2018-05-04T05:56:10.334Z,101162.89
2018-05-04T05:57:16.718Z,101169.64
2018-05-04T05:58:23.023Z,101163.72
2018-05-04T05:59:29.303Z,101160.43
2018-05-04T06:00:35.631Z,101158.72
2018-05-04T06:01:41.951Z,101154.43
2018-05-04T06:02:48.360Z,101156.38
2018-05-04T06:03:54.531Z,101155.41
2018-05-04T06:05:01.371Z,101160.75
2018-05-04T06:06:07.718Z,101157.86
2018-05-04T06:07:14.012Z,101154.90
2018-05-04T06:08:20.220Z,101162.45
2018-05-04T06:09:30.055Z,101158.42
2018-05-04T06:10:36.246Z,101159.19
2018-05-04T06:11:43.027Z,101162.91
2018-05-04T06:12:49.026Z,101163.44
2018-05-04T06:13:55.287Z,101161.45
2018-05-04T06:15:02.051Z,101171.41
2018-05-04T06:16:08.289Z,101169.83
2018-05-04T06:17:15.264Z,101175.55
2018-05-04T06:18:22.055Z,101172.08
2018-05-04T06:19:28.446Z,101177.44
2018-05-04T06:21:39.493Z,101172.30
2018-05-04T06:22:45.742Z,101165.70
2018-05-04T06:23:52.967Z,101166.80
2018-05-04T06:24:59.203Z,101173.52
2018-05-04T06:26:06.235Z,101168.20
2018-05-04T06:27:12.518Z,101173.13
2018-05-04T06:28:18.762Z,101178.23
2018-05-04T06:29:25.042Z,101169.37
2018-05-04T06:30:31.240Z,101172.68
2018-05-04T06:31:37.476Z,101172.69
2018-05-04T06:32:43.890Z,101179.17
2018-05-04T06:33:51.462Z,101181.36
2018-05-04T06:34:58.673Z,101178.80
2018-05-04T06:36:04.726Z,101175.56
2018-05-04T06:37:11.000Z,101179.14
2018-05-04T06:38:17.303Z,101177.05
2018-05-04T06:39:23.587Z,101178.60
2018-05-04T06:40:29.799Z,101184.20
2018-05-04T06:41:36.139Z,101181.84
2018-05-04T06:42:42.461Z,101178.51
2018-05-04T06:43:50.226Z,101179.36
2018-05-04T06:44:57.927Z,101178.52
2018-05-04T06:46:05.613Z,101185.16
2018-05-04T06:47:14.186Z,101181.69
2018-05-04T06:48:21.376Z,101183.13
2018-05-04T06:49:28.427Z,101182.04
2018-05-04T06:50:35.436Z,101180.09
2018-05-04T06:51:41.736Z,101183.13
2018-05-04T06:52:48.031Z,101181.95
2018-05-04T06:53:54.247Z,101181.91
2018-05-04T06:55:00.543Z,101177.77
2018-05-04T06:56:06.752Z,101186.09
2018-05-04T06:57:12.974Z,101185.48
2018-05-04T06:58:19.299Z,101183.48
2018-05-04T06:59:25.700Z,101193.91
2018-05-04T07:00:34.000Z,101187.24
2018-05-04T07:01:40.263Z,101191.77
2018-05-04T07:02:46.679Z,101191.33
2018-05-04T07:03:53.018Z,101194.47
2018-05-04T07:04:59.608Z,101195.39
2018-05-04T07:06:06.507Z,101195.67
2018-05-04T07:07:16.043Z,101195.72
2018-05-04T07:08:22.352Z,101197.77
2018-05-04T07:09:28.781Z,101204.50
2018-05-04T07:10:35.651Z,101198.28
2018-05-04T07:11:41.880Z,101195.25
2018-05-04T07:12:48.107Z,101199.52
2018-05-04T07:13:54.343Z,101198.70
2018-05-04T07:15:00.702Z,101190.98
2018-05-04T07:16:07.102Z,101197.91
2018-05-04T07:17:13.328Z,101196.22
2018-05-04T07:18:19.542Z,101197.59
2018-05-04T07:19:25.775Z,101200.84
2018-05-04T07:20:32.075Z,101200.48
2018-05-04T07:21:39.189Z,101196.44
2018-05-04T07:22:45.312Z,101198.23
2018-05-04T07:23:51.543Z,101197.30
2018-05-04T07:24:57.519Z,101205.55
2018-05-04T07:26:03.739Z,101203.52
2018-05-04T07:27:15.835Z,101204.59
2018-05-04T07:28:22.047Z,101202.67
2018-05-04T07:29:28.299Z,101197.65
2018-05-04T07:30:34.525Z,101198.43
2018-05-04T07:31:40.796Z,101200.77
2018-05-04T07:32:47.024Z,101202.51
2018-05-04T07:33:53.266Z,101203.52
2018-05-04T07:34:59.760Z,101202.27
2018-05-04T07:36:06.137Z,101202.32
2018-05-04T07:37:12.983Z,101206.81
2018-05-04T07:38:19.234Z,101205.04
2018-05-04T07:39:25.611Z,101203.91
2018-05-04T07:40:33.156Z,101196.44
2018-05-04T07:41:39.464Z,101205.05
2018-05-04T07:42:45.672Z,101196.25
2018-05-04T07:43:51.897Z,101189.23
2018-05-04T07:44:58.209Z,101196.44
2018-05-04T07:46:04.019Z,101199.09
2018-05-04T07:47:10.282Z,101203.86
2018-05-04T07:48:16.515Z,101207.97
2018-05-04T07:49:22.510Z,101197.79
2018-05-04T07:50:28.846Z,101204.09
2018-05-04T07:51:34.822Z,101200.13
2018-05-04T07:52:41.244Z,101203.28
2018-05-04T07:53:47.527Z,101205.89
2018-05-04T07:54:53.464Z,101211.02
2018-05-04T07:55:59.645Z,101205.27
2018-05-04T07:57:06.099Z,101207.30
2018-05-04T07:58:12.303Z,101206.49
2018-05-04T07:59:19.169Z,101198.41
2018-05-04T08:00:25.430Z,101204.03
2018-05-04T08:01:30.957Z,101199.48
2018-05-04T08:02:37.220Z,101201.20
2018-05-04T08:03:43.452Z,101196.64
2018-05-04T08:04:49.668Z,101195.47
2018-05-04T08:05:55.866Z,101193.78
2018-05-04T08:07:02.023Z,101193.52
2018-05-04T08:08:08.280Z,101199.89
2018-05-04T08:09:14.523Z,101202.39
2018-05-04T08:10:20.800Z,101198.76
2018-05-04T08:11:27.299Z,101199.47
2018-05-04T08:12:34.141Z,101199.34
2018-05-04T08:13:42.480Z,101201.85
2018-05-04T08:14:48.502Z,101194.77
2018-05-04T08:15:54.486Z,101194.06
2018-05-04T08:17:01.083Z,101193.34
2018-05-04T08:18:07.252Z,101201.56
2018-05-04T08:19:13.482Z,101202.48
2018-05-04T08:20:20.271Z,101208.14
2018-05-04T08:21:26.520Z,101198.97
2018-05-04T08:22:32.787Z,101201.58
2018-05-04T08:23:39.611Z,101207.11
2018-05-04T08:24:45.860Z,101205.06
2018-05-04T08:25:51.928Z,101208.56
2018-05-04T08:26:58.157Z,101208.02
2018-05-04T08:28:04.463Z,101209.36
2018-05-04T08:29:10.713Z,101211.92
2018-05-04T08:30:17.007Z,101207.02
2018-05-04T08:31:23.312Z,101210.75
2018-05-04T08:32:29.494Z,101208.54
2018-05-04T08:33:35.766Z,101212.66
2018-05-04T08:34:42.167Z,101210.30
2018-05-04T08:35:48.470Z,101209.67
2018-05-04T08:36:54.442Z,101218.09
2018-05-04T08:38:01.608Z,101215.64
2018-05-04T08:39:07.910Z,101209.95
2018-05-04T08:40:14.002Z,101215.11
2018-05-04T08:41:20.812Z,101215.65
2018-05-04T08:42:27.031Z,101212.77
2018-05-04T08:43:33.732Z,101217.31
2018-05-04T08:44:39.781Z,101205.97
2018-05-04T08:45:46.107Z,101208.98
2018-05-04T08:46:52.393Z,101206.41
2018-05-04T08:47:58.884Z,101204.81
2018-05-04T08:49:05.292Z,101202.50
2018-05-04T08:50:13.637Z,101202.57
2018-05-04T08:51:22.191Z,101205.92
2018-05-04T08:52:28.200Z,101195.42
2018-05-04T08:53:34.442Z,101200.89
2018-05-04T08:54:40.679Z,101200.03
2018-05-04T08:55:47.030Z,101206.25
2018-05-04T08:56:53.242Z,101207.13
2018-05-04T08:58:00.087Z,101202.53
2018-05-04T08:59:07.199Z,101198.57
2018-05-04T09:00:13.479Z,101200.69
2018-05-04T09:01:20.093Z,101203.28
2018-05-04T09:02:26.495Z,101196.52
2018-05-04T09:03:32.789Z,101199.73
2018-05-04T09:04:39.606Z,101197.02
2018-05-04T09:05:45.828Z,101205.06
2018-05-04T09:06:52.339Z,101202.64
2018-05-04T09:07:58.543Z,101200.80
2018-05-04T09:09:03.864Z,101200.42
2018-05-04T09:10:10.176Z,101201.20
2018-05-04T09:11:19.833Z,101202.47
2018-05-04T09:12:30.816Z,101196.64
2018-05-04T09:13:38.092Z,101195.77
2018-05-04T09:14:44.394Z,101198.84
2018-05-04T09:15:50.626Z,101202.83
2018-05-04T09:16:56.959Z,101199.41
2018-05-04T09:18:02.908Z,101200.13
2018-05-04T09:19:08.928Z,101205.54
2018-05-04T09:20:15.151Z,101201.62
2018-05-04T09:21:21.386Z,101198.95
2018-05-04T09:22:28.403Z,101203.27
2018-05-04T09:23:34.784Z,101199.81
2018-05-04T09:24:41.013Z,101193.55
2018-05-04T09:25:47.383Z,101195.03
2018-05-04T09:26:53.628Z,101193.81
2018-05-04T09:28:03.684Z,101190.47
2018-05-04T09:29:09.931Z,101194.38
2018-05-04T09:30:16.176Z,101192.28
2018-05-04T09:31:22.495Z,101187.05
2018-05-04T09:32:29.513Z,101190.99
2018-05-04T09:33:42.143Z,101192.81
2018-05-04T09:34:48.322Z,101185.23
2018-05-04T09:35:56.617Z,101182.37
2018-05-04T09:37:02.825Z,101188.81
2018-05-04T09:38:09.119Z,101184.53
2018-05-04T09:39:15.366Z,101182.62
2018-05-04T09:40:21.662Z,101183.77
2018-05-04T09:41:27.849Z,101189.41
2018-05-04T09:42:34.082Z,101185.38
2018-05-04T09:43:40.496Z,101187.50
2018-05-04T09:44:46.973Z,101187.95
2018-05-04T09:45:53.238Z,101180.98
2018-05-04T09:47:00.375Z,101186.31
2018-05-04T09:48:07.174Z,101185.59
2018-05-04T09:49:13.463Z,101187.05
2018-05-04T09:50:19.686Z,101185.87
2018-05-04T09:51:25.906Z,101183.56
2018-05-04T09:52:32.196Z,101185.34
2018-05-04T09:53:38.515Z,101186.40
2018-05-04T09:54:47.632Z,101178.88
2018-05-04T09:55:53.889Z,101176.27
2018-05-04T09:57:00.601Z,101176.66
2018-05-04T09:58:06.803Z,101173.88
2018-05-04T09:59:13.059Z,101176.13
2018-05-04T10:00:19.330Z,101176.70
2018-05-04T10:01:25.691Z,101176.03
2018-05-04T10:02:31.657Z,101177.95
2018-05-04T10:03:37.881Z,101180.36
2018-05-04T10:04:44.296Z,101174.09
2018-05-04T10:05:50.459Z,101173.19
2018-05-04T10:06:58.333Z,101180.74
2018-05-04T10:08:04.503Z,101183.15
2018-05-04T10:09:10.829Z,101182.19
2018-05-04T10:10:17.898Z,101177.59
2018-05-04T10:11:24.102Z,101175.72
2018-05-04T10:12:30.086Z,101174.16
2018-05-04T10:13:37.123Z,101175.55
2018-05-04T10:14:43.349Z,101175.30
2018-05-04T10:15:53.484Z,101170.22
2018-05-04T10:16:59.784Z,101169.28
2018-05-04T10:18:05.824Z,101169.39
2018-05-04T10:19:12.083Z,101170.94
2018-05-04T10:20:18.293Z,101167.69
2018-05-04T10:21:24.516Z,101160.69
2018-05-04T10:22:31.627Z,101161.91
2018-05-04T10:23:38.445Z,101164.91
2018-05-04T10:24:44.668Z,101160.26
2018-05-04T10:25:50.865Z,101165.23
2018-05-04T10:26:57.100Z,101169.00
2018-05-04T10:28:03.287Z,101155.34
2018-05-04T10:29:09.554Z,101149.51
2018-05-04T10:30:15.786Z,101160.01
2018-05-04T10:31:22.047Z,101156.02
2018-05-04T10:32:28.312Z,101162.44
2018-05-04T10:33:34.584Z,101160.34
2018-05-04T10:34:40.873Z,101160.23
2018-05-04T10:35:47.695Z,101160.00
2018-05-04T10:36:54.007Z,101154.91
2018-05-04T10:38:00.511Z,101159.80
2018-05-04T10:39:06.339Z,101159.70
2018-05-04T10:40:12.866Z,101163.23
2018-05-04T10:41:19.133Z,101153.68
2018-05-04T10:42:25.474Z,101167.70
2018-05-04T10:43:31.774Z,101150.56
2018-05-04T10:44:37.945Z,101157.00
2018-05-04T10:45:44.223Z,101157.27
2018-05-04T10:46:50.505Z,101154.52
2018-05-04T10:47:56.805Z,101161.80
2018-05-04T10:49:03.110Z,101156.13
2018-05-04T10:50:09.333Z,101157.32
2018-05-04T10:51:15.525Z,101160.05
2018-05-04T10:52:21.547Z,101160.28
2018-05-04T10:53:27.830Z,101153.66
2018-05-04T10:54:34.164Z,101160.60
2018-05-04T10:55:40.139Z,101163.13
2018-05-04T10:56:54.378Z,101157.80
2018-05-04T10:58:00.555Z,101154.81
2018-05-04T10:59:06.565Z,101154.16
2018-05-04T11:00:12.872Z,101151.55
2018-05-04T11:01:19.836Z,101162.34
2018-05-04T11:02:26.037Z,101159.76
2018-05-04T11:03:32.271Z,101158.88
2018-05-04T11:04:38.567Z,101165.69
2018-05-04T11:05:44.774Z,101155.34
2018-05-04T11:06:51.130Z,101160.23
2018-05-04T11:07:57.379Z,101157.00
2018-05-04T11:09:03.016Z,101157.89
2018-05-04T11:10:08.988Z,101159.97
2018-05-04T11:11:15.209Z,101159.09
2018-05-04T11:12:21.266Z,101162.02
2018-05-04T11:13:27.454Z,101169.64
2018-05-04T11:14:33.881Z,101154.61
2018-05-04T11:15:40.143Z,101164.11
2018-05-04T11:16:46.436Z,101158.72
2018-05-04T11:17:52.741Z,101153.13
2018-05-04T11:18:58.952Z,101150.73
2018-05-04T11:20:05.686Z,101158.39
2018-05-04T11:21:11.884Z,101153.84
2018-05-04T11:22:18.143Z,101154.68
2018-05-04T11:23:24.409Z,101153.43
2018-05-04T11:24:30.603Z,101153.75
2018-05-04T11:25:36.840Z,101155.08
2018-05-04T11:26:43.040Z,101153.27
2018-05-04T11:27:49.274Z,101153.67
2018-05-04T11:28:55.565Z,101162.98
2018-05-04T11:30:02.434Z,101162.67
2018-05-04T11:31:09.194Z,101163.69
2018-05-04T11:32:15.460Z,101158.66
2018-05-04T11:33:21.748Z,101152.02
2018-05-04T11:34:28.081Z,101154.16
2018-05-04T11:35:34.372Z,101155.61
2018-05-04T11:36:40.688Z,101156.69
2018-05-04T11:37:47.011Z,101159.88
2018-05-04T11:38:53.344Z,101151.14
2018-05-04T11:39:59.749Z,101157.05
2018-05-04T11:41:05.669Z,101146.72
2018-05-04T11:42:11.716Z,101151.86
2018-05-04T11:43:17.893Z,101151.25
2018-05-04T11:44:24.137Z,101150.05
2018-05-04T11:45:30.348Z,101144.63
2018-05-04T11:46:36.991Z,101156.27
2018-05-04T11:47:43.316Z,101154.23
2018-05-04T11:48:49.846Z,101158.10
2018-05-04T11:49:56.101Z,101160.73
2018-05-04T11:51:02.322Z,101163.59
2018-05-04T11:52:08.655Z,101157.76
2018-05-04T11:53:14.988Z,101147.61
2018-05-04T11:54:21.827Z,101143.72
2018-05-04T11:55:34.364Z,101144.30
2018-05-04T11:56:43.192Z,101149.46
2018-05-04T11:57:52.360Z,101158.33
2018-05-04T11:59:01.069Z,101153.95
2018-05-04T12:00:09.120Z,101156.44
2018-05-04T12:01:18.928Z,101153.09
2018-05-04T12:02:25.950Z,101152.31
2018-05-04T12:03:32.108Z,101151.78
2018-05-04T12:04:38.346Z,101148.99
2018-05-04T12:05:44.633Z,101151.96
2018-05-04T12:06:50.871Z,101147.81
2018-05-04T12:07:57.204Z,101152.52
2018-05-04T12:09:03.524Z,101142.08
2018-05-04T12:10:09.819Z,101142.77
2018-05-04T12:11:16.610Z,101146.66
2018-05-04T12:12:22.602Z,101141.42
2018-05-04T12:13:29.343Z,101145.03
2018-05-04T12:14:36.698Z,101141.48
2018-05-04T12:15:45.702Z,101147.07
2018-05-04T12:16:53.460Z,101146.80
2018-05-04T12:17:59.759Z,101149.97
2018-05-04T12:19:06.048Z,101147.06
2018-05-04T12:20:12.316Z,101151.19
2018-05-04T12:21:18.527Z,101145.92
2018-05-04T12:22:24.778Z,101153.55
2018-05-04T12:23:31.088Z,101147.20
2018-05-04T12:24:37.370Z,101148.78
2018-05-04T12:25:43.572Z,101152.05
2018-05-04T12:26:49.779Z,101145.89
2018-05-04T12:27:56.016Z,101143.31
2018-05-04T12:29:02.843Z,101146.07
2018-05-04T12:30:09.121Z,101140.95
2018-05-04T12:31:15.387Z,101144.09
2018-05-04T12:32:22.063Z,101146.63
2018-05-04T12:33:29.111Z,101145.98
2018-05-04T12:34:35.383Z,101141.48
2018-05-04T12:35:41.595Z,101141.16
2018-05-04T12:36:48.014Z,101146.28
2018-05-04T12:37:54.236Z,101139.38
2018-05-04T12:39:00.735Z,101142.86
2018-05-04T12:40:06.980Z,101148.03
2018-05-04T12:41:13.261Z,101142.36
2018-05-04T12:42:20.655Z,101139.02